createdAt,value
2023-01-06T00:01:00.460Z,100
2023-01-06T00:06:52.658Z,100
2023-01-06T00:12:43.646Z,100
2023-01-06T00:18:34.194Z,100
2023-01-06T00:24:26.807Z,100
2023-01-06T00:30:18.545Z,100
2023-01-06T00:36:09.871Z,100
2023-01-06T00:42:01.991Z,100
2023-01-06T00:47:53.407Z,100
2023-01-06T00:53:45.174Z,100
2023-01-06T00:59:36.059Z,100
2023-01-06T01:05:26.856Z,100
2023-01-06T01:11:18.437Z,100
2023-01-06T01:17:08.846Z,100
2023-01-06T01:23:01.204Z,100
2023-01-06T01:28:51.773Z,100
2023-01-06T01:34:43.449Z,100
2023-01-06T01:40:36.530Z,100
2023-01-06T01:46:27.307Z,100
2023-01-06T01:52:18.854Z,100
2023-01-06T01:58:09.618Z,100
2023-01-06T02:04:00.079Z,100
2023-01-06T02:09:53.128Z,100
2023-01-06T02:16:03.539Z,100
2023-01-06T02:21:55.286Z,100
2023-01-06T02:27:46.818Z,100
2023-01-06T02:33:37.682Z,100
2023-01-06T02:39:30.191Z,100
2023-01-06T02:45:21.096Z,100
2023-01-06T02:51:13.074Z,100
2023-01-06T02:57:03.952Z,100
2023-01-06T03:02:54.232Z,100
2023-01-06T03:08:44.874Z,100
2023-01-06T03:14:39.870Z,100
2023-01-06T03:20:30.260Z,100
2023-01-06T03:26:22.770Z,100
2023-01-06T03:32:15.007Z,100
2023-01-06T03:38:05.929Z,100
2023-01-06T03:43:56.681Z,100
2023-01-06T03:49:48.828Z,100
2023-01-06T03:55:39.688Z,100
2023-01-06T04:01:30.987Z,100
2023-01-06T04:07:22.338Z,100
2023-01-06T04:13:14.145Z,100
2023-01-06T04:19:05.419Z,100
2023-01-06T04:24:56.600Z,100
2023-01-06T04:30:47.721Z,100
2023-01-06T04:36:39.496Z,100
2023-01-06T04:42:29.971Z,100
2023-01-06T04:48:22.195Z,100
2023-01-06T04:54:14.452Z,100
2023-01-06T05:00:07.169Z,100
2023-01-06T05:05:58.520Z,100
2023-01-06T05:11:50.422Z,100
2023-01-06T05:17:42.630Z,100
2023-01-06T05:23:33.636Z,100
2023-01-06T05:29:25.780Z,99.1
2023-01-06T05:35:17.825Z,98.4
2023-01-06T05:41:08.956Z,100
2023-01-06T05:48:08.128Z,99.4
2023-01-06T05:53:57.949Z,99.1
2023-01-06T05:59:49.239Z,99.1
2023-01-06T06:05:40.316Z,99
2023-01-06T06:11:31.552Z,98.4
2023-01-06T06:17:23.279Z,98.1
2023-01-06T06:23:14.835Z,97.9
2023-01-06T06:29:07.135Z,97.3
2023-01-06T06:34:58.951Z,96
2023-01-06T06:40:51.332Z,94.6
2023-01-06T06:46:43.015Z,94.6
2023-01-06T06:52:33.979Z,93.4
2023-01-06T06:58:25.476Z,93.6
2023-01-06T07:04:17.415Z,93.5
2023-01-06T07:10:10.737Z,92.8
2023-01-06T07:16:02.764Z,92.8
2023-01-06T07:21:54.418Z,92.9
2023-01-06T07:27:47.303Z,92.5
2023-01-06T07:33:37.918Z,93
2023-01-06T07:39:28.806Z,93
2023-01-06T07:45:20.323Z,93.5
2023-01-06T07:51:12.561Z,93.9
2023-01-06T07:57:04.751Z,94.3
2023-01-06T08:02:56.787Z,94.2
2023-01-06T08:08:48.930Z,94
2023-01-06T08:14:39.286Z,93.5
2023-01-06T08:20:30.523Z,93.8
2023-01-06T08:26:21.733Z,94.2
2023-01-06T08:32:14.898Z,94.7
2023-01-06T08:38:05.035Z,94.4
2023-01-06T08:43:58.408Z,94.5
2023-01-06T08:49:49.257Z,94.8
2023-01-06T08:55:41.515Z,94.3
2023-01-06T09:01:33.565Z,94.5
2023-01-06T09:07:25.269Z,94.1
2023-01-06T09:13:16.309Z,94.5
2023-01-06T09:19:08.183Z,93.9
2023-01-06T09:25:06.346Z,94.5
2023-01-06T09:30:57.323Z,94.7
2023-01-06T09:36:48.640Z,94.2
2023-01-06T09:42:39.594Z,93.9
2023-01-06T09:48:30.177Z,93.7
2023-01-06T09:54:21.141Z,94.2
2023-01-06T10:00:13.508Z,94.5
2023-01-06T10:06:08.603Z,94.9
2023-01-06T10:12:00.502Z,94.1
2023-01-06T10:17:51.160Z,93.1
2023-01-06T10:23:42.393Z,92.6
2023-01-06T10:29:33.682Z,92.2
2023-01-06T10:35:24.896Z,91.7
2023-01-06T10:41:15.255Z,91.6
2023-01-06T10:47:07.792Z,91
2023-01-06T10:52:59.060Z,90.7
2023-01-06T10:58:50.315Z,91
2023-01-06T11:04:42.475Z,90.1
2023-01-06T11:10:32.958Z,89.6
2023-01-06T11:16:23.625Z,89.3
2023-01-06T11:22:14.567Z,88.9
2023-01-06T11:28:08.364Z,89.1
2023-01-06T11:33:59.260Z,89
2023-01-06T11:40:11.370Z,88.8
2023-01-06T11:46:00.185Z,89.4
2023-01-06T11:51:51.902Z,89.2
2023-01-06T11:57:42.689Z,89.4
2023-01-06T12:03:36.403Z,88.8
2023-01-06T12:09:27.178Z,89
2023-01-06T12:15:17.983Z,88.6
2023-01-06T12:21:09.323Z,90.6
2023-01-06T12:26:59.997Z,89.2
2023-01-06T12:32:50.333Z,87.9
2023-01-06T12:38:41.261Z,87
2023-01-06T12:44:31.536Z,86.4
2023-01-06T12:50:22.185Z,86.2
2023-01-06T12:56:12.910Z,87
2023-01-06T13:02:04.043Z,86.9
2023-01-06T13:07:56.963Z,87
2023-01-06T13:13:47.121Z,87.3
2023-01-06T13:19:39.377Z,87
2023-01-06T13:37:10.611Z,87.2
2023-01-06T13:42:58.336Z,87.1
2023-01-06T13:48:47.867Z,87
2023-01-06T13:55:03.243Z,86.9
2023-01-06T14:02:05.165Z,86.6
2023-01-06T14:07:55.499Z,86.6
2023-01-06T14:13:46.810Z,86.8
2023-01-06T14:19:38.723Z,87
2023-01-06T14:26:42.868Z,87
2023-01-06T14:32:35.738Z,87.2
2023-01-06T14:38:27.627Z,87.4
2023-01-06T20:08:15.148Z,95.1
2023-01-06T20:14:18.153Z,95.1
2023-01-06T20:20:17.200Z,94.6
2023-01-06T20:26:10.740Z,94.8
2023-01-06T20:32:06.666Z,94.5
2023-01-06T20:37:56.704Z,94.3
2023-01-06T20:43:48.095Z,94.7
2023-01-06T20:49:40.526Z,94.6
2023-01-06T20:55:33.416Z,94.4
2023-01-06T21:07:54.559Z,94.3
2023-01-06T21:14:02.129Z,94.7
2023-01-06T21:20:01.721Z,95
2023-01-06T21:31:51.394Z,95.3
2023-01-06T21:38:03.545Z,95.4
2023-01-06T21:44:00.763Z,95.7
2023-01-06T21:49:52.500Z,95.9
2023-01-06T21:55:43.183Z,95.8
2023-01-06T22:01:40.319Z,95.7
2023-01-06T22:14:20.970Z,95.3
2023-01-06T22:20:17.509Z,95.2
2023-01-06T22:26:09.318Z,95.3
2023-01-06T22:32:03.292Z,95.1
2023-01-06T22:37:55.583Z,94.7
2023-01-06T22:43:50.191Z,96.1
2023-01-06T22:49:48.111Z,97.8
2023-01-06T22:55:41.290Z,98.2
2023-01-06T23:01:35.420Z,98.6
2023-01-06T23:32:59.077Z,100
2023-01-06T23:39:21.275Z,100
2023-01-06T23:45:26.520Z,100
2023-01-06T23:51:36.489Z,99.3
